createdAt,value
2023-11-01T00:01:01.393Z,100.00
2023-11-01T00:05:03.181Z,100.00
2023-11-01T00:09:04.819Z,100.00
2023-11-01T00:13:07.755Z,100.00
2023-11-01T00:17:09.351Z,100.00
2023-11-01T00:21:10.952Z,100.00
2023-11-01T00:25:12.564Z,100.00
2023-11-01T00:29:15.756Z,100.00
2023-11-01T00:33:17.482Z,100.00
2023-11-01T00:37:19.325Z,100.00
2023-11-01T00:41:20.986Z,100.00
2023-11-01T00:45:23.975Z,100.00
2023-11-01T00:49:25.549Z,100.00
2023-11-01T00:53:28.210Z,100.00
2023-11-01T00:57:29.843Z,100.00
2023-11-01T01:01:32.806Z,100.00
2023-11-01T01:05:34.486Z,100.00
2023-11-01T01:09:36.111Z,100.00
2023-11-01T01:13:37.686Z,100.00
2023-11-01T01:17:40.744Z,100.00
2023-11-01T01:21:43.516Z,100.00
2023-11-01T01:25:45.111Z,100.00
2023-11-01T01:29:46.707Z,100.00
2023-11-01T01:33:49.723Z,100.00
2023-11-01T01:37:51.368Z,100.00
2023-11-01T01:41:53.036Z,100.00
2023-11-01T01:46:03.664Z,100.00
2023-11-01T01:50:08.065Z,100.00
2023-11-01T01:54:09.820Z,100.00
2023-11-01T01:58:11.858Z,100.00
2023-11-01T02:02:14.294Z,100.00
2023-11-01T02:06:17.263Z,100.00
2023-11-01T02:10:18.842Z,100.00
2023-11-01T02:14:20.481Z,100.00
2023-11-01T02:18:22.112Z,100.00
2023-11-01T02:22:24.986Z,100.00
2023-11-01T02:26:27.943Z,100.00
2023-11-01T02:30:29.580Z,100.00
2023-11-01T02:34:31.162Z,100.00
2023-11-01T02:38:32.888Z,100.00
2023-11-01T02:42:36.132Z,100.00
2023-11-01T02:46:37.695Z,100.00
2023-11-01T02:50:39.419Z,100.00
2023-11-01T02:54:41.006Z,100.00
2023-11-01T02:58:43.907Z,100.00
2023-11-01T03:02:45.664Z,100.00
2023-11-01T03:06:47.222Z,100.00
2023-11-01T03:10:48.778Z,100.00
2023-11-01T03:14:51.857Z,100.00
2023-11-01T03:18:53.506Z,100.00
2023-11-01T03:22:55.061Z,100.00
2023-11-01T03:26:56.751Z,100.00
2023-11-01T03:30:59.683Z,100.00
2023-11-01T03:35:01.263Z,100.00
2023-11-01T03:39:03.052Z,100.00
2023-11-01T03:43:04.622Z,100.00
2023-11-01T03:47:07.787Z,100.00
2023-11-01T03:51:09.340Z,100.00
2023-11-01T03:55:10.914Z,100.00
2023-11-01T03:59:12.572Z,100.00
2023-11-01T04:03:15.659Z,100.00
2023-11-01T04:07:17.851Z,100.00
2023-11-01T04:11:19.593Z,100.00
2023-11-01T04:15:21.193Z,100.00
2023-11-01T04:19:24.389Z,100.00
2023-11-01T04:23:26.031Z,100.00
2023-11-01T04:27:27.651Z,100.00
2023-11-01T04:31:29.239Z,100.00
2023-11-01T04:35:32.195Z,100.00
2023-11-01T04:39:33.759Z,100.00
2023-11-01T04:43:35.410Z,100.00
2023-11-01T04:47:37.606Z,100.00
2023-11-01T04:51:41.005Z,100.00
2023-11-01T04:55:43.835Z,100.00
2023-11-01T04:59:46.478Z,100.00
2023-11-01T05:03:48.063Z,100.00
2023-11-01T05:07:51.052Z,100.00
2023-11-01T05:11:52.883Z,100.00
2023-11-01T05:15:54.695Z,100.00
2023-11-01T05:19:56.256Z,100.00
2023-11-01T05:23:59.149Z,100.00
2023-11-01T05:28:00.774Z,100.00
2023-11-01T05:32:02.315Z,100.00
2023-11-01T05:36:04.915Z,100.00
2023-11-01T05:40:09.387Z,100.00
2023-11-01T05:44:10.953Z,100.00
2023-11-01T05:48:12.556Z,100.00
2023-11-01T05:52:14.156Z,100.00
2023-11-01T05:56:17.152Z,100.00
2023-11-01T06:00:19.766Z,100.00
2023-11-01T06:04:21.436Z,100.00
2023-11-01T06:08:23.041Z,100.00
2023-11-01T06:12:25.946Z,100.00
2023-11-01T06:16:27.583Z,100.00
2023-11-01T06:20:29.207Z,100.00
2023-11-01T06:24:32.208Z,100.00
2023-11-01T06:28:35.130Z,100.00
2023-11-01T06:32:36.810Z,100.00
2023-11-01T06:36:38.462Z,100.00
2023-11-01T06:40:40.020Z,100.00
2023-11-01T06:44:42.921Z,100.00
2023-11-01T06:48:45.209Z,100.00
2023-11-01T06:52:46.922Z,100.00
2023-11-01T06:56:48.560Z,100.00
2023-11-01T07:00:51.502Z,100.00
2023-11-01T07:04:53.164Z,100.00
2023-11-01T07:08:54.987Z,100.00
2023-11-01T07:12:57.347Z,100.00
2023-11-01T07:17:01.207Z,100.00
2023-11-01T07:21:03.014Z,100.00
2023-11-01T07:25:05.781Z,100.00
2023-11-01T07:29:08.172Z,100.00
2023-11-01T07:33:11.418Z,100.00
2023-11-01T07:37:13.016Z,100.00
2023-11-01T07:41:16.729Z,100.00
2023-11-01T07:45:18.329Z,100.00
2023-11-01T07:49:21.327Z,100.00
2023-11-01T07:53:22.930Z,100.00
2023-11-01T07:57:25.013Z,100.00
2023-11-01T08:01:26.613Z,100.00
2023-11-01T08:05:29.716Z,100.00
2023-11-01T08:09:31.348Z,100.00
2023-11-01T08:13:32.915Z,100.00
2023-11-01T08:17:34.615Z,100.00
2023-11-01T08:21:37.557Z,100.00
2023-11-01T08:25:39.149Z,100.00
2023-11-01T08:29:40.765Z,100.00
2023-11-01T08:33:42.436Z,100.00
2023-11-01T08:37:45.637Z,100.00
2023-11-01T08:41:47.285Z,100.00
2023-11-01T08:45:48.955Z,100.00
2023-11-01T08:49:51.035Z,100.00
2023-11-01T08:53:54.813Z,100.00
2023-11-01T08:57:56.492Z,100.00
2023-11-01T09:02:07.426Z,100.00
2023-11-01T09:06:14.987Z,98.24
2023-11-01T09:10:18.560Z,98.11
2023-11-01T09:14:20.291Z,97.79
2023-11-01T09:18:21.986Z,96.64
2023-11-01T09:22:24.338Z,96.21
2023-11-01T09:26:27.373Z,98.96
2023-11-01T09:30:28.939Z,98.94
2023-11-01T09:34:30.537Z,98.39
2023-11-01T09:38:32.144Z,98.45
2023-11-01T09:42:35.477Z,99.73
2023-11-01T09:46:37.256Z,96.73
2023-11-01T09:50:40.962Z,94.39
2023-11-01T09:54:42.535Z,90.54
2023-11-01T09:58:45.937Z,90.48
2023-11-01T10:02:47.998Z,89.21
2023-11-01T10:06:49.605Z,86.50
2023-11-01T10:10:51.493Z,86.08
2023-11-01T10:14:55.130Z,85.83
2023-11-01T10:18:56.812Z,82.92
2023-11-01T10:22:58.987Z,85.69
2023-11-01T10:27:00.684Z,85.25
2023-11-01T10:31:04.587Z,83.55
2023-11-01T10:35:12.725Z,86.38
2023-11-01T10:39:14.491Z,85.96
2023-11-01T10:43:16.658Z,86.50
2023-11-01T10:47:19.886Z,87.16
2023-11-01T10:51:21.886Z,86.02
2023-11-01T10:55:23.496Z,81.89
2023-11-01T10:59:31.438Z,81.86
2023-11-01T11:03:43.067Z,79.81
2023-11-01T11:07:48.250Z,81.00
2023-11-01T11:12:04.710Z,80.90
2023-11-01T11:16:06.590Z,83.41
2023-11-01T11:20:13.940Z,80.50
2023-11-01T11:24:46.951Z,82.35
2023-11-01T11:28:48.521Z,81.35
2023-11-01T11:33:06.638Z,81.73
2023-11-01T11:37:09.950Z,81.61
2023-11-01T11:41:13.010Z,81.88
2023-11-01T11:45:25.323Z,81.13
2023-11-01T11:49:28.958Z,80.70
2023-11-01T11:53:35.704Z,79.81
2023-11-01T11:57:37.569Z,80.95
2023-11-01T12:01:39.625Z,82.54
2023-11-01T12:05:41.253Z,78.59
2023-11-01T12:09:49.403Z,80.67
2023-11-01T12:13:51.014Z,81.34
2023-11-01T12:17:52.622Z,79.10
2023-11-01T12:21:55.808Z,79.80
2023-11-01T12:26:08.410Z,79.57
2023-11-01T12:30:21.251Z,77.39
2023-11-01T12:34:22.893Z,76.69
2023-11-01T12:38:24.484Z,75.49
2023-11-01T12:42:28.777Z,76.56
2023-11-01T12:46:30.439Z,76.22
2023-11-01T12:50:33.610Z,76.45
2023-11-01T12:54:35.602Z,76.28
2023-11-01T12:58:39.633Z,77.43
2023-11-01T13:02:41.871Z,78.21
2023-11-01T13:06:43.589Z,76.56
2023-11-01T13:10:45.158Z,74.10
2023-11-01T13:14:48.077Z,76.89
2023-11-01T13:18:49.737Z,79.80
2023-11-01T13:22:53.361Z,78.17
2023-11-01T13:26:56.089Z,82.74
2023-11-01T13:30:59.147Z,83.34
2023-11-01T13:35:00.962Z,82.15
2023-11-01T13:39:02.754Z,83.57
2023-11-01T13:43:04.333Z,84.51
2023-11-01T13:47:07.340Z,85.05
2023-11-01T13:51:09.163Z,85.23
2023-11-01T13:55:10.778Z,85.97
2023-11-01T13:59:12.381Z,84.65
2023-11-01T14:03:15.503Z,87.97
2023-11-01T14:07:17.239Z,87.79
2023-11-01T14:11:18.927Z,88.03
2023-11-01T14:15:20.538Z,88.55
2023-11-01T14:19:23.435Z,87.83
2023-11-01T14:23:24.972Z,87.78
2023-11-01T14:27:26.512Z,90.58
2023-11-01T14:31:28.133Z,90.40
2023-11-01T14:35:31.046Z,88.40
2023-11-01T14:39:32.605Z,90.09
2023-11-01T14:43:34.171Z,90.84
2023-11-01T14:47:36.029Z,90.78
2023-11-01T14:51:41.675Z,91.15
2023-11-01T14:55:43.267Z,92.00
2023-11-01T14:59:45.376Z,93.97
2023-11-01T15:03:47.179Z,94.77
2023-11-01T15:07:50.249Z,97.65
2023-11-01T15:11:52.050Z,99.16
2023-11-01T15:15:53.694Z,99.18
2023-11-01T15:19:55.265Z,99.65
2023-11-01T15:23:58.461Z,100.00
2023-11-01T15:28:00.095Z,100.00
2023-11-01T15:32:01.673Z,100.00
2023-11-01T15:36:04.816Z,100.00
2023-11-01T15:40:09.313Z,100.00
2023-11-01T15:44:11.146Z,100.00
2023-11-01T15:48:13.143Z,100.00
2023-11-01T15:52:14.798Z,100.00
2023-11-01T15:56:17.727Z,100.00
2023-11-01T16:00:19.353Z,100.00
2023-11-01T16:04:21.160Z,100.00
2023-11-01T16:08:23.613Z,100.00
2023-11-01T16:12:26.554Z,100.00
2023-11-01T16:16:28.138Z,100.00
2023-11-01T16:20:29.995Z,100.00
2023-11-01T16:24:31.653Z,100.00
2023-11-01T16:28:34.570Z,100.00
2023-11-01T16:32:36.155Z,100.00
2023-11-01T16:36:37.732Z,100.00
2023-11-01T16:40:39.351Z,100.00
2023-11-01T16:44:42.487Z,100.00
2023-11-01T16:48:44.411Z,100.00
2023-11-01T16:52:46.023Z,100.00
2023-11-01T16:56:47.839Z,100.00
2023-11-01T17:00:50.771Z,100.00
2023-11-01T17:04:52.311Z,100.00
2023-11-01T17:08:54.074Z,100.00
2023-11-01T17:12:55.661Z,100.00
2023-11-01T17:16:59.132Z,100.00
2023-11-01T17:21:00.709Z,100.00
2023-11-01T17:25:02.322Z,100.00
2023-11-01T17:29:04.180Z,100.00
2023-11-01T17:33:07.143Z,100.00
2023-11-01T17:37:08.746Z,100.00
2023-11-01T17:41:48.478Z,100.00
2023-11-01T17:45:50.081Z,100.00
2023-11-01T17:49:59.626Z,100.00
2023-11-01T17:54:01.422Z,100.00
2023-11-01T17:58:03.077Z,100.00
2023-11-01T18:02:30.548Z,100.00
2023-11-01T18:06:33.596Z,100.00
2023-11-01T18:10:40.304Z,100.00
2023-11-01T18:14:42.890Z,100.00
2023-11-01T18:18:45.652Z,100.00
2023-11-01T18:22:48.594Z,100.00
2023-11-01T18:26:50.184Z,100.00
2023-11-01T18:30:52.471Z,100.00
2023-11-01T18:34:54.110Z,100.00
2023-11-01T18:38:58.962Z,100.00
2023-11-01T18:43:00.784Z,100.00
2023-11-01T18:47:05.185Z,100.00
2023-11-01T18:51:14.197Z,100.00
2023-11-01T18:55:29.212Z,100.00
2023-11-01T18:59:31.485Z,100.00
2023-11-01T19:03:33.231Z,100.00
2023-11-01T19:07:38.375Z,100.00
2023-11-01T19:11:41.353Z,100.00
2023-11-01T19:16:10.757Z,100.00
2023-11-01T19:20:12.321Z,100.00
2023-11-01T19:24:13.890Z,100.00
2023-11-01T19:28:17.729Z,100.00
2023-11-01T19:32:19.451Z,100.00
2023-11-01T19:36:21.254Z,100.00
2023-11-01T19:40:23.051Z,100.00
2023-11-01T19:44:26.145Z,100.00
2023-11-01T19:48:27.957Z,100.00
2023-11-01T19:52:29.592Z,100.00
2023-11-01T19:56:31.346Z,100.00
2023-11-01T20:00:34.363Z,100.00
2023-11-01T20:04:36.947Z,100.00
2023-11-01T20:08:38.533Z,100.00
2023-11-01T20:12:40.239Z,100.00
2023-11-01T20:16:43.179Z,100.00
2023-11-01T20:20:44.771Z,100.00
2023-11-01T20:24:46.327Z,100.00
2023-11-01T20:28:48.204Z,100.00
2023-11-01T20:32:51.556Z,100.00
2023-11-01T20:36:53.169Z,100.00
2023-11-01T20:40:54.805Z,100.00
2023-11-01T20:44:56.365Z,100.00
2023-11-01T20:48:59.395Z,100.00
2023-11-01T20:53:00.947Z,100.00
2023-11-01T20:57:02.584Z,100.00
2023-11-01T21:01:04.559Z,100.00
2023-11-01T21:05:08.322Z,100.00
2023-11-01T21:09:10.055Z,100.00
2023-11-01T21:13:11.664Z,100.00
2023-11-01T21:17:13.311Z,100.00
2023-11-01T21:21:16.635Z,100.00
2023-11-01T21:25:18.266Z,100.00
2023-11-01T21:29:20.204Z,100.00
2023-11-01T21:33:22.068Z,100.00
2023-11-01T21:37:25.915Z,100.00
2023-11-01T21:41:27.571Z,100.00
2023-11-01T21:45:47.186Z,100.00
2023-11-01T21:49:48.819Z,100.00
2023-11-01T21:53:51.743Z,100.00
2023-11-01T21:57:54.215Z,100.00
2023-11-01T22:01:55.857Z,100.00
2023-11-01T22:05:57.599Z,100.00
2023-11-01T22:10:10.549Z,100.00
2023-11-01T22:14:26.910Z,100.00
2023-11-01T22:18:28.501Z,100.00
2023-11-01T22:22:49.928Z,100.00
2023-11-01T22:26:53.342Z,100.00
2023-11-01T22:30:55.019Z,100.00
2023-11-01T22:34:56.661Z,100.00
2023-11-01T22:38:59.720Z,100.00
2023-11-01T22:43:02.709Z,100.00
2023-11-01T22:47:04.738Z,100.00
2023-11-01T22:51:07.137Z,100.00
2023-11-01T22:55:09.155Z,100.00
2023-11-01T22:59:12.065Z,100.00
2023-11-01T23:03:13.814Z,100.00
2023-11-01T23:07:15.445Z,100.00
2023-11-01T23:11:17.012Z,100.00
2023-11-01T23:15:20.092Z,100.00
2023-11-01T23:19:21.697Z,100.00
2023-11-01T23:23:23.332Z,100.00
2023-11-01T23:27:25.119Z,100.00
2023-11-01T23:31:28.482Z,100.00
2023-11-01T23:35:30.605Z,100.00
2023-11-01T23:39:38.006Z,100.00
2023-11-01T23:43:39.562Z,100.00
2023-11-01T23:47:51.275Z,100.00
2023-11-01T23:51:57.522Z,100.00
2023-11-01T23:55:59.070Z,100.00
